Time;durP1;ratioP1;P1;durP2;ratioP2;P2;SDS_P1;SDS_P2;PMS_P1;PMS_P2;Temp;Humidity;BMP_temperature;BMP_pressure;BME280_temperature;BME280_humidity;BME280_pressure;Samples;Min_cycle;Max_cycle;Signal;HPM_P1;HPM_P2
2022/05/25 00:01:29;;;;;;;5.73;5.23;;;13.90;79.60;;;;;;5062336;28;20668;-85
2022/05/25 00:03:55;;;;;;;6.35;5.30;;;13.90;80.00;;;;;;5081851;28;20205;-85
2022/05/25 00:06:21;;;;;;;6.63;4.90;;;13.90;81.20;;;;;;5104195;28;22124;-86
2022/05/25 00:08:47;;;;;;;9.23;4.57;;;13.80;81.90;;;;;;5068991;28;20509;-85
2022/05/25 00:11:13;;;;;;;5.13;4.63;;;13.80;82.20;;;;;;5069030;28;20418;-85
2022/05/25 00:13:38;;;;;;;9.77;5.77;;;13.70;82.60;;;;;;5085316;28;20311;-85
2022/05/25 00:16:05;;;;;;;5.13;4.57;;;13.80;82.80;;;;;;5066920;28;20287;-85
2022/05/25 00:18:30;;;;;;;5.72;4.85;;;13.70;82.80;;;;;;5063906;28;20833;-84
2022/05/25 00:20:57;;;;;;;5.53;4.73;;;13.70;82.60;;;;;;5062807;28;20265;-85
2022/05/25 00:23:23;;;;;;;10.05;5.25;;;13.70;83.00;;;;;;5045922;28;20230;-85
2022/05/25 00:25:49;;;;;;;8.32;4.72;;;13.60;82.60;;;;;;5081210;28;20209;-84
2022/05/25 00:28:16;;;;;;;6.03;4.38;;;13.70;82.90;;;;;;5064033;28;20698;-84
2022/05/25 00:30:44;;;;;;;7.63;4.63;;;13.60;82.40;;;;;;5064190;28;20189;-85
2022/05/25 00:33:11;;;;;;;4.40;3.80;;;13.60;82.40;;;;;;5063899;28;20197;-84
2022/05/25 00:35:38;;;;;;;10.10;4.22;;;13.60;81.70;;;;;;5063525;28;20181;-86
2022/05/25 00:38:06;;;;;;;6.35;3.70;;;13.60;81.90;;;;;;5063729;28;20271;-85
2022/05/25 00:40:38;;;;;;;6.75;3.25;;;13.60;82.00;;;;;;5077210;28;20176;-84
2022/05/25 00:43:05;;;;;;;6.18;3.50;;;13.60;82.10;;;;;;5064462;28;20619;-85
2022/05/25 00:45:50;;;;;;;6.03;3.55;;;13.60;81.70;;;;;;5097528;28;20188;-86
2022/05/25 00:48:22;;;;;;;16.10;3.95;;;13.50;81.80;;;;;;5080992;28;20196;-86
2022/05/25 00:53:34;;;;;;;3.92;2.75;;;13.50;81.80;;;;;;5077232;28;20566;-84
2022/05/25 00:56:00;;;;;;;5.80;4.05;;;13.50;81.60;;;;;;5060251;28;20213;-84
2022/05/25 00:58:26;;;;;;;8.40;5.10;;;13.60;81.40;;;;;;5059203;28;20176;-84
2022/05/25 01:00:55;;;;;;;9.82;5.25;;;13.50;81.40;;;;;;5059627;28;20180;-85
2022/05/25 01:03:21;;;;;;;9.35;4.88;;;13.50;81.80;;;;;;5059891;28;20219;-84
2022/05/25 01:09:18;;;;;;;11.05;5.72;;;13.40;82.00;;;;;;5066196;28;20257;-84
2022/05/25 01:11:59;;;;;;;11.15;7.00;;;13.40;82.00;;;;;;5048199;28;20175;-86
2022/05/25 01:15:01;;;;;;;8.23;5.40;;;13.40;82.00;;;;;;5040641;28;20672;-86
2022/05/25 01:17:52;;;;;;;7.60;6.30;;;13.30;82.20;;;;;;5063049;28;20297;-86
2022/05/25 01:20:28;;;;;;;8.20;6.18;;;13.30;82.30;;;;;;5079129;28;20655;-85
2022/05/25 01:23:24;;;;;;;11.73;6.10;;;13.30;82.30;;;;;;5066576;28;20207;-85
2022/05/25 01:26:15;;;;;;;8.23;5.40;;;13.30;82.70;;;;;;5075998;28;20848;-85
2022/05/25 01:29:01;;;;;;;9.00;4.97;;;13.20;82.10;;;;;;5077923;28;20168;-84
2022/05/25 01:32:05;;;;;;;6.10;4.80;;;13.20;82.40;;;;;;5096404;28;20259;-84
2022/05/25 01:34:48;;;;;;;6.20;4.40;;;13.20;82.50;;;;;;5078413;28;20190;-85
2022/05/25 01:37:31;;;;;;;6.35;3.75;;;13.20;82.60;;;;;;5073820;28;20569;-84
2022/05/25 01:40:08;;;;;;;13.40;4.05;;;13.20;82.50;;;;;;5057328;28;20202;-84
2022/05/25 01:42:47;;;;;;;8.32;4.70;;;13.20;82.50;;;;;;5068944;28;20200;-86
2022/05/25 01:45:15;;;;;;;5.47;3.30;;;13.10;82.50;;;;;;5076781;28;20161;-85
2022/05/25 01:47:46;;;;;;;5.28;3.38;;;13.10;82.50;;;;;;5059112;28;20207;-85
2022/05/25 01:50:16;;;;;;;6.60;2.92;;;13.10;82.70;;;;;;5065343;28;20168;-85
2022/05/25 01:52:45;;;;;;;3.65;2.85;;;13.10;82.20;;;;;;5064907;28;20198;-84
2022/05/25 01:55:21;;;;;;;5.80;3.72;;;13.10;81.90;;;;;;5082451;28;20169;-85
2022/05/25 01:57:51;;;;;;;5.78;3.15;;;13.00;82.10;;;;;;5074217;28;20255;-85
2022/05/25 02:00:39;;;;;;;8.52;3.45;;;13.00;82.50;;;;;;5103885;28;20179;-85
2022/05/25 02:06:34;;;;;;;7.05;3.55;;;13.00;82.20;;;;;;5088988;28;20184;-85
2022/05/25 02:09:10;;;;;;;6.50;2.90;;;13.00;83.20;;;;;;4995607;28;20260;-85
2022/05/25 02:11:40;;;;;;;5.88;3.65;;;12.90;83.50;;;;;;5066948;28;20175;-85
2022/05/25 02:14:25;;;;;;;3.85;3.03;;;12.90;83.30;;;;;;5085233;28;20703;-85
2022/05/25 02:16:50;;;;;;;4.18;3.83;;;12.90;83.50;;;;;;5088145;28;20191;-85
2022/05/25 02:19:19;;;;;;;5.33;3.27;;;12.90;83.80;;;;;;5072459;28;20196;-86
2022/05/25 02:22:04;;;;;;;7.28;3.70;;;12.90;84.10;;;;;;5071140;28;20196;-85
2022/05/25 02:24:43;;;;;;;5.78;2.90;;;12.80;83.70;;;;;;5089067;28;20183;-85
2022/05/25 02:27:25;;;;;;;5.00;3.60;;;12.80;83.70;;;;;;5066564;28;20287;-85
2022/05/25 02:29:57;;;;;;;11.88;4.07;;;12.80;83.50;;;;;;5078344;28;20172;-84
2022/05/25 02:32:52;;;;;;;5.47;3.70;;;12.80;83.50;;;;;;5080925;28;20204;-84
2022/05/25 02:35:19;;;;;;;5.65;3.38;;;12.80;82.90;;;;;;5081733;28;20235;-85
2022/05/25 02:37:45;;;;;;;4.80;3.00;;;12.80;82.90;;;;;;5079986;28;20175;-85
2022/05/25 02:40:13;;;;;;;4.33;3.30;;;12.80;83.40;;;;;;5080649;28;20183;-85
2022/05/25 02:42:41;;;;;;;6.53;3.70;;;12.80;83.70;;;;;;5063159;28;20450;-84
2022/05/25 02:45:09;;;;;;;8.43;3.65;;;12.70;84.40;;;;;;5093195;28;20236;-84
2022/05/25 02:47:35;;;;;;;7.13;4.00;;;12.70;84.40;;;;;;5060178;28;20200;-84
2022/05/25 02:50:01;;;;;;;8.83;3.63;;;12.70;84.50;;;;;;5073403;28;20278;-84
2022/05/25 02:52:27;;;;;;;14.57;4.17;;;12.70;84.50;;;;;;5073061;28;20200;-84
2022/05/25 02:54:53;;;;;;;5.60;3.83;;;12.70;84.70;;;;;;5060859;28;20411;-84
2022/05/25 02:57:19;;;;;;;4.00;3.60;;;12.70;84.70;;;;;;5059807;28;20249;-85
2022/05/25 02:59:46;;;;;;;4.90;3.72;;;12.60;84.20;;;;;;5060409;28;20201;-85
2022/05/25 03:02:11;;;;;;;9.73;4.53;;;12.70;84.60;;;;;;5070796;28;20549;-84
2022/05/25 03:04:38;;;;;;;6.50;4.00;;;12.60;84.80;;;;;;5099210;28;20172;-85
2022/05/25 03:07:05;;;;;;;5.30;4.15;;;12.60;84.80;;;;;;5065898;28;20200;-85
2022/05/25 03:09:37;;;;;;;5.35;4.03;;;12.60;84.70;;;;;;5060890;28;20228;-84
2022/05/25 03:12:04;;;;;;;6.28;4.20;;;12.60;85.00;;;;;;5079602;28;20587;-84
2022/05/25 03:14:31;;;;;;;4.50;3.40;;;12.60;84.90;;;;;;5080518;28;20438;-87
2022/05/25 03:16:58;;;;;;;5.05;3.65;;;12.60;84.80;;;;;;5080931;28;20175;-86
2022/05/25 03:19:24;;;;;;;9.60;4.63;;;12.60;84.50;;;;;;5095971;28;20210;-86
2022/05/25 03:21:50;;;;;;;8.68;3.40;;;12.50;84.70;;;;;;5061982;28;20200;-86
2022/05/25 03:24:16;;;;;;;6.77;4.70;;;12.50;84.70;;;;;;5082296;28;20203;-85
2022/05/25 03:26:42;;;;;;;7.30;4.13;;;12.50;84.80;;;;;;5081936;28;20203;-86
2022/05/25 03:29:08;;;;;;;6.23;3.57;;;12.50;84.60;;;;;;5083508;28;20256;-84
2022/05/25 03:31:34;;;;;;;5.93;3.95;;;12.50;84.00;;;;;;5101588;28;20231;-84
2022/05/25 03:33:59;;;;;;;7.40;4.38;;;12.50;84.70;;;;;;5082800;28;20199;-85
2022/05/25 03:36:25;;;;;;;8.00;5.53;;;12.40;84.70;;;;;;5100955;28;20164;-85
2022/05/25 03:38:51;;;;;;;4.73;3.20;;;12.40;84.90;;;;;;5081499;28;20197;-85
2022/05/25 03:41:17;;;;;;;6.27;3.63;;;12.40;84.80;;;;;;5081319;28;20497;-85
2022/05/25 03:43:44;;;;;;;7.05;4.25;;;12.40;84.90;;;;;;5100761;28;20191;-85
2022/05/25 03:46:10;;;;;;;7.40;4.78;;;12.40;85.20;;;;;;5067919;28;20610;-85
2022/05/25 03:48:36;;;;;;;7.18;4.82;;;12.40;85.20;;;;;;5061089;28;20257;-85
2022/05/25 03:51:02;;;;;;;10.23;3.80;;;12.40;85.20;;;;;;5063229;28;20211;-86
2022/05/25 03:53:28;;;;;;;7.65;4.45;;;12.40;84.70;;;;;;5081444;28;20200;-86
2022/05/25 03:55:54;;;;;;;7.80;4.53;;;12.50;84.90;;;;;;5080599;28;20187;-84
2022/05/25 03:58:20;;;;;;;8.10;4.00;;;12.40;84.90;;;;;;5060834;28;20574;-85
2022/05/25 04:00:46;;;;;;;9.33;5.63;;;12.40;84.60;;;;;;5060986;28;20245;-85
2022/05/25 04:03:15;;;;;;;8.70;5.05;;;12.40;84.90;;;;;;5062871;28;20193;-85
2022/05/25 04:05:42;;;;;;;10.80;4.93;;;12.40;85.10;;;;;;5080314;28;20246;-85
2022/05/25 04:08:08;;;;;;;7.05;4.22;;;12.40;85.10;;;;;;5062273;28;20657;-85
2022/05/25 04:10:36;;;;;;;7.72;5.10;;;12.50;84.60;;;;;;5085531;28;20188;-84
2022/05/25 04:13:02;;;;;;;16.55;5.35;;;12.50;84.00;;;;;;5084974;28;20237;-86
2022/05/25 04:15:30;;;;;;;7.30;4.80;;;12.50;84.20;;;;;;5081991;28;20212;-84
2022/05/25 04:17:56;;;;;;;5.75;3.95;;;12.50;84.70;;;;;;5075686;28;20184;-85
2022/05/25 04:20:24;;;;;;;5.70;4.40;;;12.60;84.10;;;;;;5065161;28;20191;-84
2022/05/25 04:22:50;;;;;;;9.52;4.85;;;12.70;83.50;;;;;;5070579;28;20506;-84
2022/05/25 04:25:20;;;;;;;9.18;5.90;;;12.70;83.40;;;;;;5073472;28;20185;-84
2022/05/25 04:27:47;;;;;;;13.02;6.10;;;12.70;83.60;;;;;;5066856;28;20938;-85
2022/05/25 04:30:19;;;;;;;11.82;5.85;;;12.70;83.70;;;;;;5081404;28;20179;-85
2022/05/25 04:32:45;;;;;;;8.65;5.15;;;12.70;83.60;;;;;;5074096;28;20192;-85
2022/05/25 04:35:13;;;;;;;15.40;5.55;;;12.70;84.20;;;;;;5065904;28;20581;-85
2022/05/25 04:37:54;;;;;;;6.55;5.30;;;12.70;83.80;;;;;;5066127;28;20214;-84
2022/05/25 04:40:22;;;;;;;8.02;4.28;;;12.70;83.50;;;;;;5081323;28;20777;-85
2022/05/25 04:42:50;;;;;;;7.38;4.78;;;12.80;83.10;;;;;;5081808;28;20241;-85
2022/05/25 04:45:16;;;;;;;5.95;4.82;;;12.80;82.70;;;;;;5085828;28;20195;-85
2022/05/25 04:47:42;;;;;;;9.07;5.35;;;12.90;82.80;;;;;;5079567;22;20231;-87
2022/05/25 04:50:10;;;;;;;7.60;5.17;;;12.90;82.60;;;;;;5038075;28;20265;-86
2022/05/25 04:52:37;;;;;;;8.18;5.30;;;12.90;82.40;;;;;;5055625;28;20417;-86
2022/05/25 04:55:04;;;;;;;11.75;5.38;;;13.00;81.90;;;;;;5039577;28;20343;-86
2022/05/25 04:57:31;;;;;;;10.52;4.85;;;13.00;81.80;;;;;;5052058;28;20197;-87
2022/05/25 04:59:59;;;;;;;8.50;5.32;;;13.00;82.30;;;;;;5058539;28;20274;-86
2022/05/25 05:02:27;;;;;;;4.32;3.92;;;13.10;82.20;;;;;;5047353;28;20205;-86
2022/05/25 05:04:53;;;;;;;4.72;4.07;;;13.20;82.10;;;;;;5054429;28;20184;-86
2022/05/25 05:07:28;;;;;;;7.73;4.00;;;13.30;81.60;;;;;;5073393;28;20212;-88
2022/05/25 05:09:54;;;;;;;6.45;4.82;;;13.40;81.40;;;;;;5023542;28;20423;-86
2022/05/25 05:12:20;;;;;;;5.73;4.57;;;13.50;80.80;;;;;;5023424;28;20266;-86
2022/05/25 05:14:46;;;;;;;7.53;3.87;;;13.60;80.70;;;;;;5052955;28;20176;-86
2022/05/25 05:17:12;;;;;;;8.50;4.32;;;13.70;80.40;;;;;;5053492;28;20656;-86
2022/05/25 05:19:38;;;;;;;8.48;4.72;;;14.00;80.00;;;;;;5057535;28;20188;-86
2022/05/25 05:22:04;;;;;;;4.30;3.90;;;14.50;78.40;;;;;;5050907;28;20174;-87
2022/05/25 05:24:32;;;;;;;6.27;3.80;;;15.30;76.80;;;;;;5036905;28;20558;-87
2022/05/25 05:26:58;;;;;;;10.63;3.45;;;16.60;72.50;;;;;;5048743;28;20509;-90
2022/05/25 05:29:24;;;;;;;6.70;2.95;;;17.60;67.30;;;;;;5060512;28;20236;-89
2022/05/25 05:31:51;;;;;;;6.75;3.22;;;18.50;62.80;;;;;;5053708;28;20173;-89
2022/05/25 05:34:17;;;;;;;4.40;2.80;;;19.30;59.00;;;;;;5040693;28;20185;-88
2022/05/25 05:36:53;;;;;;;5.70;2.83;;;19.70;56.60;;;;;;5047625;28;20429;-88
2022/05/25 05:39:22;;;;;;;5.60;3.20;;;19.90;56.40;;;;;;5048853;28;20421;-89
2022/05/25 05:42:03;;;;;;;4.53;2.73;;;19.90;56.00;;;;;;5047074;28;20421;-88
2022/05/25 05:44:37;;;;;;;4.20;2.97;;;20.00;54.70;;;;;;5050672;28;20515;-89
2022/05/25 05:47:05;;;;;;;7.23;2.90;;;20.00;54.60;;;;;;5057839;28;20456;-89
2022/05/25 05:49:31;;;;;;;4.27;2.47;;;20.10;54.70;;;;;;5052280;28;20423;-89
2022/05/25 05:51:57;;;;;;;7.43;3.83;;;20.70;53.30;;;;;;5049084;28;20431;-90
2022/05/25 05:54:23;;;;;;;5.57;3.17;;;20.80;53.30;;;;;;5037506;28;20833;-88
2022/05/25 05:56:49;;;;;;;5.00;3.03;;;20.80;52.00;;;;;;5019264;28;20490;-87
2022/05/25 05:59:15;;;;;;;7.50;3.30;;;20.60;52.40;;;;;;5035352;28;20892;-88
2022/05/25 06:01:42;;;;;;;13.13;3.73;;;20.40;52.90;;;;;;5036121;28;20428;-88
2022/05/25 06:04:09;;;;;;;4.10;3.00;;;19.90;54.50;;;;;;5041158;28;20197;-89
2022/05/25 06:06:34;;;;;;;6.93;2.70;;;20.30;53.30;;;;;;5036217;28;20404;-88
2022/05/25 06:09:01;;;;;;;4.50;2.50;;;20.80;52.00;;;;;;5035294;28;20445;-88
2022/05/25 06:11:26;;;;;;;9.10;2.77;;;21.00;51.80;;;;;;5033961;28;20265;-87
2022/05/25 06:13:52;;;;;;;6.63;3.43;;;21.00;51.80;;;;;;5033854;28;20459;-88
2022/05/25 06:21:46;;;;;;;5.37;3.50;;;21.20;51.20;;;;;;5057290;28;20423;-89
2022/05/25 06:24:12;;;;;;;5.47;3.10;;;21.10;51.20;;;;;;5038649;28;20808;-89
2022/05/25 06:26:38;;;;;;;4.93;3.53;;;20.80;52.80;;;;;;5033950;28;20212;-89
2022/05/25 06:29:04;;;;;;;8.13;3.80;;;21.20;51.60;;;;;;5034643;28;20440;-89
2022/05/25 06:31:31;;;;;;;3.90;3.03;;;21.00;51.20;;;;;;5034193;28;20184;-89
2022/05/25 06:33:58;;;;;;;6.07;3.37;;;20.50;53.00;;;;;;5035521;28;20416;-87
2022/05/25 06:36:27;;;;;;;3.00;2.60;;;20.20;54.00;;;;;;5035396;28;20484;-88
2022/05/25 06:38:54;;;;;;;6.20;3.80;;;20.40;54.50;;;;;;5034651;28;20788;-89
2022/05/25 06:41:20;;;;;;;7.70;4.00;;;20.70;53.30;;;;;;5035909;28;20417;-89
2022/05/25 06:43:46;;;;;;;4.77;2.90;;;20.40;53.70;;;;;;5046584;28;20532;-87
2022/05/25 06:46:18;;;;;;;5.40;3.30;;;20.70;54.00;;;;;;5046863;28;20450;-87
2022/05/25 06:48:45;;;;;;;4.63;3.10;;;20.80;52.80;;;;;;5034795;28;20495;-88
2022/05/25 06:51:34;;;;;;;6.13;3.67;;;21.00;53.00;;;;;;5036875;28;20401;-89
2022/05/25 06:54:00;;;;;;;5.90;2.83;;;21.30;51.80;;;;;;5027538;28;20405;-88
2022/05/25 06:56:26;;;;;;;2.93;2.30;;;21.50;51.40;;;;;;5043399;28;20494;-87
2022/05/25 06:58:53;;;;;;;3.50;2.17;;;21.70;50.40;;;;;;5055912;28;20455;-87
2022/05/25 07:01:23;;;;;;;5.00;2.80;;;21.50;50.10;;;;;;5054273;28;20479;-85
2022/05/25 07:03:52;;;;;;;4.93;2.70;;;21.80;49.90;;;;;;5048285;28;20413;-89
2022/05/25 07:06:19;;;;;;;5.93;2.10;;;21.70;50.30;;;;;;5040816;28;20423;-89
2022/05/25 07:08:46;;;;;;;5.27;3.00;;;21.70;50.90;;;;;;5037047;28;20444;-88
2022/05/25 07:11:12;;;;;;;7.17;2.70;;;22.00;48.80;;;;;;5038464;28;20419;-89
2022/05/25 07:13:39;;;;;;;5.17;2.20;;;21.60;49.90;;;;;;5038841;28;20428;-88
2022/05/25 07:16:09;;;;;;;3.77;2.50;;;21.70;50.00;;;;;;5035295;28;20430;-89
2022/05/25 07:18:36;;;;;;;2.97;2.30;;;21.90;48.20;;;;;;5032982;28;20439;-88
2022/05/25 07:21:08;;;;;;;4.13;3.00;;;21.60;50.10;;;;;;5033374;28;20971;-89
2022/05/25 07:23:35;;;;;;;5.63;2.43;;;21.10;51.20;;;;;;5017325;28;20421;-89
2022/05/25 07:26:01;;;;;;;10.43;2.53;;;21.00;51.60;;;;;;5013652;28;20417;-86
2022/05/25 07:28:27;;;;;;;3.80;2.30;;;20.90;52.20;;;;;;5013367;28;20473;-89
2022/05/25 07:30:58;;;;;;;7.97;3.07;;;20.50;53.30;;;;;;5031354;28;20424;-89
2022/05/25 07:33:24;;;;;;;3.30;2.00;;;20.30;53.90;;;;;;5033662;28;20580;-87
2022/05/25 07:35:49;;;;;;;6.20;2.87;;;20.20;55.00;;;;;;5033327;28;20924;-88
2022/05/25 07:38:15;;;;;;;6.37;2.80;;;20.60;53.20;;;;;;5034054;28;20447;-89
2022/05/25 07:40:44;;;;;;;11.47;2.87;;;20.50;52.90;;;;;;5033087;28;20184;-89
2022/05/25 07:43:14;;;;;;;4.43;2.43;;;20.70;52.80;;;;;;5033802;28;20189;-88
2022/05/25 07:45:40;;;;;;;4.07;2.10;;;20.60;53.10;;;;;;5034682;28;20877;-89
2022/05/25 07:48:07;;;;;;;7.13;2.47;;;20.60;52.30;;;;;;5035613;28;20483;-88
2022/05/25 07:50:33;;;;;;;8.10;3.10;;;20.40;52.50;;;;;;5043398;28;20197;-89
2022/05/25 07:53:00;;;;;;;4.83;2.63;;;20.30;52.90;;;;;;5046819;28;20419;-89
2022/05/25 07:55:26;;;;;;;5.67;2.87;;;19.90;54.00;;;;;;5051287;28;20527;-88
2022/05/25 07:57:52;;;;;;;7.90;2.50;;;19.50;55.90;;;;;;5029054;28;20479;-88
2022/05/25 08:00:20;;;;;;;7.90;3.20;;;19.30;56.40;;;;;;5024027;28;20247;-89
2022/05/25 08:05:44;;;;;;;4.53;2.40;;;18.60;59.50;;;;;;5043740;28;20192;-89
2022/05/25 08:08:13;;;;;;;5.30;2.30;;;18.20;61.10;;;;;;5040644;28;20271;-87
2022/05/25 08:10:42;;;;;;;5.15;2.80;;;18.00;62.30;;;;;;5038395;28;20185;-89
2022/05/25 08:13:08;;;;;;;3.75;2.58;;;18.10;62.40;;;;;;5037974;28;20252;-89
2022/05/25 08:15:34;;;;;;;5.93;2.58;;;18.20;62.80;;;;;;5036873;28;20209;-88
2022/05/25 08:18:00;;;;;;;3.88;2.05;;;18.20;63.80;;;;;;5038219;28;20193;-89
2022/05/25 08:20:26;;;;;;;3.13;2.15;;;18.30;62.10;;;;;;5047310;28;20549;-85
2022/05/25 08:22:52;;;;;;;12.83;2.93;;;18.30;62.20;;;;;;5054117;28;20189;-89
2022/05/25 08:25:19;;;;;;;7.95;2.78;;;18.40;62.40;;;;;;5055823;28;20429;-86
2022/05/25 08:27:45;;;;;;;7.97;2.10;;;18.20;62.30;;;;;;5047074;28;20222;-89
2022/05/25 08:30:17;;;;;;;3.47;2.30;;;18.10;63.10;;;;;;5050464;28;20178;-86
2022/05/25 08:32:43;;;;;;;4.43;2.10;;;18.50;61.90;;;;;;5057008;28;20169;-89
2022/05/25 08:35:10;;;;;;;3.40;2.13;;;18.40;62.00;;;;;;5056502;28;20245;-88
2022/05/25 08:37:36;;;;;;;18.17;4.28;;;18.50;62.80;;;;;;5055554;28;20197;-87
2022/05/25 08:40:03;;;;;;;6.00;1.98;;;18.50;62.60;;;;;;5053110;28;20228;-89
2022/05/25 08:42:34;;;;;;;4.90;1.80;;;18.30;61.30;;;;;;5054671;28;20178;-88
2022/05/25 08:45:00;;;;;;;5.00;1.85;;;18.20;59.60;;;;;;5051915;28;20173;-89
2022/05/25 08:47:26;;;;;;;7.57;1.57;;;18.10;60.80;;;;;;5049246;28;20269;-87
2022/05/25 08:49:55;;;;;;;4.95;1.80;;;18.10;60.40;;;;;;5059131;28;20452;-89
2022/05/25 08:52:32;;;;;;;5.90;1.80;;;18.00;60.30;;;;;;5043329;28;20182;-87
2022/05/25 08:55:00;;;;;;;2.40;1.40;;;18.00;60.50;;;;;;5036326;28;20645;-87
2022/05/25 08:57:33;;;;;;;4.82;1.38;;;18.20;60.80;;;;;;5035814;28;20206;-87
2022/05/25 09:00:04;;;;;;;5.32;1.75;;;18.40;60.50;;;;;;5036796;28;20181;-88
2022/05/25 09:02:36;;;;;;;2.30;1.50;;;18.50;58.50;;;;;;5037235;28;20185;-88
2022/05/25 09:05:10;;;;;;;4.13;1.33;;;18.50;57.70;;;;;;5038845;28;20198;-87
2022/05/25 09:07:48;;;;;;;5.40;2.30;;;18.50;58.00;;;;;;5036090;28;20223;-89
2022/05/25 09:10:15;;;;;;;2.05;1.20;;;18.50;57.10;;;;;;5020441;28;20177;-88
2022/05/25 09:12:49;;;;;;;6.90;1.35;;;18.40;56.60;;;;;;5037443;28;20178;-86
2022/05/25 09:15:24;;;;;;;4.72;1.40;;;18.60;56.10;;;;;;5036769;28;20251;-88
2022/05/25 09:18:02;;;;;;;6.30;1.60;;;18.50;55.60;;;;;;5047875;28;20751;-89
2022/05/25 09:20:36;;;;;;;3.08;1.20;;;18.50;56.10;;;;;;5037724;28;20181;-88
2022/05/25 09:23:03;;;;;;;5.10;1.52;;;18.50;55.60;;;;;;5043414;28;20249;-87
2022/05/25 09:25:30;;;;;;;5.45;1.75;;;18.40;55.70;;;;;;5055528;28;20174;-88
2022/05/25 09:28:07;;;;;;;4.65;1.48;;;18.50;55.90;;;;;;5039915;28;20228;-87
2022/05/25 09:30:37;;;;;;;3.50;1.40;;;18.70;55.80;;;;;;5041112;28;20195;-85
2022/05/25 09:33:16;;;;;;;2.97;1.23;;;18.90;54.10;;;;;;5054349;28;20201;-86
2022/05/25 09:35:46;;;;;;;4.13;1.38;;;18.80;54.00;;;;;;5055852;28;20187;-87
2022/05/25 09:38:16;;;;;;;5.95;1.60;;;18.90;54.80;;;;;;5041742;28;20190;-83
2022/05/25 09:40:50;;;;;;;2.08;1.15;;;19.10;53.80;;;;;;5057968;28;20182;-86
2022/05/25 09:43:23;;;;;;;3.83;1.55;;;18.90;52.60;;;;;;5053625;28;20226;-87
2022/05/25 09:45:55;;;;;;;4.25;1.48;;;19.00;53.60;;;;;;5036313;28;20177;-89
2022/05/25 09:48:26;;;;;;;1.70;1.15;;;19.10;54.30;;;;;;5036293;28;20310;-88
2022/05/25 09:51:06;;;;;;;2.25;1.42;;;19.10;53.70;;;;;;5038063;28;20822;-88
2022/05/25 09:53:41;;;;;;;3.33;1.40;;;19.10;54.10;;;;;;5039263;28;20386;-88
2022/05/25 09:56:19;;;;;;;3.67;1.30;;;19.20;53.70;;;;;;5038417;28;20578;-88
2022/05/25 09:58:50;;;;;;;1.75;1.10;;;19.20;53.10;;;;;;5035967;28;20623;-88
2022/05/25 10:01:23;;;;;;;5.57;1.55;;;19.30;53.60;;;;;;5038498;28;20170;-89
2022/05/25 10:03:50;;;;;;;2.92;1.20;;;19.20;52.20;;;;;;5040195;28;20197;-86
2022/05/25 10:06:26;;;;;;;3.53;1.10;;;19.40;51.50;;;;;;5044874;28;20173;-89
2022/05/25 10:09:17;;;;;;;2.37;1.03;;;19.40;51.40;;;;;;5023575;28;20619;-88
2022/05/25 10:11:52;;;;;;;2.90;1.10;;;19.60;49.40;;;;;;5026362;28;20536;-89
2022/05/25 10:14:39;;;;;;;2.50;1.10;;;19.80;48.40;;;;;;5019756;28;20428;-88
2022/05/25 10:17:10;;;;;;;2.23;1.07;;;20.10;47.90;;;;;;5019919;28;20851;-88
2022/05/25 10:19:48;;;;;;;2.83;1.20;;;20.30;47.30;;;;;;5018751;28;20402;-88
2022/05/25 10:22:32;;;;;;;2.37;1.07;;;20.60;46.40;;;;;;5018274;28;20441;-89
2022/05/25 10:25:19;;;;;;;1.53;1.10;;;20.90;46.20;;;;;;5021281;28;20421;-87
2022/05/25 10:27:45;;;;;;;3.13;1.30;;;21.10;44.90;;;;;;5035813;28;20472;-88
2022/05/25 10:39:18;;;;;;;4.00;1.23;;;20.40;45.70;;;;;;5054170;28;20504;-88
2022/05/25 10:41:57;;;;;;;2.37;1.20;;;20.20;46.50;;;;;;5055840;28;20428;-88
2022/05/25 10:44:24;;;;;;;1.77;1.30;;;20.10;47.20;;;;;;5045111;28;20510;-88
2022/05/25 10:46:59;;;;;;;5.03;1.20;;;20.10;47.90;;;;;;5038334;28;20460;-88
2022/05/25 10:49:42;;;;;;;2.00;1.30;;;20.00;48.50;;;;;;5034056;28;20424;-88
2022/05/25 10:52:25;;;;;;;3.40;1.50;;;20.30;47.50;;;;;;5031986;28;20417;-88
2022/05/25 10:54:52;;;;;;;2.23;1.10;;;20.30;46.30;;;;;;5036469;28;20412;-88
2022/05/25 10:57:56;;;;;;;5.67;1.43;;;20.20;47.20;;;;;;5040902;28;20440;-89
2022/05/25 11:00:40;;;;;;;3.07;1.47;;;20.10;47.30;;;;;;5041714;28;20844;-88
2022/05/25 11:03:34;;;;;;;5.43;1.50;;;20.20;46.90;;;;;;5036138;28;20831;-89
2022/05/25 11:06:27;;;;;;;4.00;1.50;;;20.10;47.40;;;;;;5036026;28;20416;-89
2022/05/25 11:09:02;;;;;;;3.13;1.20;;;20.30;47.50;;;;;;5035446;28;20448;-88
2022/05/25 11:12:01;;;;;;;4.00;1.47;;;20.20;47.00;;;;;;5033429;28;20427;-88
2022/05/25 11:14:52;;;;;;;5.10;1.80;;;20.10;47.50;;;;;;5027214;28;20578;-87
2022/05/25 11:17:49;;;;;;;5.30;1.40;;;19.90;47.80;;;;;;5036478;28;20779;-88
2022/05/25 11:20:37;;;;;;;4.97;1.40;;;19.80;47.90;;;;;;5037677;28;20482;-88
2022/05/25 11:23:37;;;;;;;4.50;1.77;;;19.60;47.40;;;;;;5034568;28;20420;-88
2022/05/25 11:26:31;;;;;;;2.63;1.03;;;19.60;47.60;;;;;;5037567;28;20447;-88
2022/05/25 11:29:16;;;;;;;3.30;1.47;;;20.00;48.00;;;;;;5039585;28;20543;-88
2022/05/25 11:32:03;;;;;;;3.83;1.40;;;20.30;48.10;;;;;;5037342;28;20424;-87
2022/05/25 11:34:32;;;;;;;2.70;1.13;;;20.60;45.50;;;;;;5040210;28;20409;-88
2022/05/25 11:37:11;;;;;;;1.50;1.00;;;20.60;44.60;;;;;;5040805;28;20417;-87
2022/05/25 11:39:59;;;;;;;3.47;1.20;;;20.50;44.20;;;;;;5041019;28;20462;-87
2022/05/25 11:42:44;;;;;;;4.40;1.30;;;20.50;43.80;;;;;;5039540;28;20458;-88
2022/05/25 11:45:44;;;;;;;5.70;1.10;;;20.10;43.70;;;;;;5030917;28;20505;-87
2022/05/25 11:48:48;;;;;;;6.03;1.33;;;19.70;44.10;;;;;;5027932;28;20478;-87
2022/05/25 11:51:25;;;;;;;6.03;1.20;;;19.50;45.70;;;;;;5004327;28;20837;-87
2022/05/25 11:54:01;;;;;;;4.13;1.20;;;19.60;46.50;;;;;;5047578;28;20458;-87
2022/05/25 11:56:42;;;;;;;4.10;1.30;;;19.60;47.20;;;;;;5056942;28;20420;-87
2022/05/25 11:59:27;;;;;;;1.77;1.13;;;19.70;47.40;;;;;;5057623;28;20193;-87
2022/05/25 12:02:18;;;;;;;5.43;1.23;;;19.70;46.80;;;;;;5057206;28;20411;-87
2022/05/25 12:05:20;;;;;;;3.17;1.20;;;20.10;46.70;;;;;;5018005;28;20459;-88
2022/05/25 12:08:24;;;;;;;6.87;1.50;;;20.40;46.50;;;;;;5035390;28;20494;-88
2022/05/25 12:11:13;;;;;;;5.83;1.00;;;20.30;45.80;;;;;;5045837;28;20405;-88
2022/05/25 12:14:05;;;;;;;3.83;1.27;;;20.10;45.60;;;;;;5017685;28;20428;-89
2022/05/25 12:16:38;;;;;;;1.40;1.00;;;20.50;45.10;;;;;;5053813;28;20490;-88
2022/05/25 12:19:21;;;;;;;2.83;1.13;;;20.70;44.70;;;;;;5044183;28;20472;-88
2022/05/25 12:21:59;;;;;;;6.53;1.13;;;21.00;44.30;;;;;;5035845;28;20429;-88
2022/05/25 12:24:34;;;;;;;2.70;1.10;;;21.00;43.90;;;;;;5035067;28;20487;-88
2022/05/25 12:27:04;;;;;;;2.73;1.03;;;21.10;43.80;;;;;;5036798;28;20471;-88
2022/05/25 12:29:43;;;;;;;5.80;1.17;;;21.10;43.70;;;;;;5048237;28;20471;-88
2022/05/25 12:32:10;;;;;;;2.87;1.57;;;20.80;44.80;;;;;;5052285;28;20455;-88
2022/05/25 12:34:40;;;;;;;5.67;1.90;;;20.60;44.10;;;;;;5038052;28;20416;-87
2022/05/25 12:37:09;;;;;;;4.20;1.60;;;20.30;45.00;;;;;;5035964;28;20421;-88
2022/05/25 12:39:47;;;;;;;5.37;1.47;;;20.50;45.70;;;;;;5028940;28;20427;-88
2022/05/25 12:42:35;;;;;;;5.33;1.30;;;20.60;45.30;;;;;;5060276;28;20419;-88
2022/05/25 12:51:15;;;;;;;1.93;1.17;;;21.20;43.90;;;;;;5040165;28;20415;-88
2022/05/25 12:53:48;;;;;;;4.00;1.60;;;21.50;44.10;;;;;;5020384;28;20425;-88
2022/05/25 12:56:19;;;;;;;3.80;1.60;;;21.80;42.90;;;;;;5045469;28;20432;-88
2022/05/25 12:58:51;;;;;;;4.70;1.30;;;22.00;41.70;;;;;;5039583;28;20448;-87
2022/05/25 13:01:23;;;;;;;2.10;1.20;;;22.00;42.20;;;;;;5040545;28;20488;-89
2022/05/25 13:03:49;;;;;;;4.97;1.33;;;22.10;40.70;;;;;;5043997;28;20438;-88
2022/05/25 13:06:21;;;;;;;1.87;1.10;;;21.80;40.90;;;;;;5043548;28;20423;-88
2022/05/25 13:08:47;;;;;;;10.40;2.40;;;22.10;40.30;;;;;;5038638;28;20298;-88
2022/05/25 13:11:51;;;;;;;5.17;1.70;;;22.40;40.20;;;;;;5038305;28;20503;-88
2022/05/25 13:14:16;;;;;;;3.00;1.20;;;22.20;39.50;;;;;;5034650;28;20177;-88
2022/05/25 13:16:45;;;;;;;2.07;1.17;;;22.00;39.60;;;;;;5043279;28;20416;-89
2022/05/25 13:19:32;;;;;;;8.23;1.57;;;22.00;39.90;;;;;;5055517;28;20255;-89
2022/05/25 13:22:03;;;;;;;6.13;1.50;;;22.10;40.10;;;;;;5057519;28;20401;-89
2022/05/25 13:24:57;;;;;;;3.27;1.20;;;21.90;39.70;;;;;;5048578;28;20436;-87
2022/05/25 13:27:46;;;;;;;7.83;1.30;;;21.90;39.80;;;;;;5050736;28;20522;-89
2022/05/25 13:30:45;;;;;;;5.50;1.30;;;21.80;39.40;;;;;;5045258;28;20429;-89
2022/05/25 13:33:21;;;;;;;8.33;1.90;;;21.40;39.60;;;;;;5038875;28;20421;-88
2022/05/25 13:36:05;;;;;;;2.40;1.20;;;21.20;40.10;;;;;;5036078;28;20979;-88
2022/05/25 13:38:55;;;;;;;12.70;2.33;;;21.70;41.00;;;;;;5035054;28;20509;-87
2022/05/25 13:41:39;;;;;;;3.67;1.47;;;21.60;40.20;;;;;;5027115;28;20473;-88
2022/05/25 13:44:18;;;;;;;3.73;1.17;;;21.70;39.80;;;;;;5047193;28;20424;-88
2022/05/25 13:46:44;;;;;;;2.13;1.07;;;21.80;39.90;;;;;;5049229;28;20416;-89